Time;durP1;ratioP1;P1;durP2;ratioP2;P2;SDS_P1;SDS_P2;PMS_P1;PMS_P2;Temp;Humidity;BMP_temperature;BMP_pressure;BME280_temperature;BME280_humidity;BME280_pressure;Samples;Min_cycle;Max_cycle;Signal;HPM_P1;HPM_P2
2022/04/25 00:00:26;;;;;;;3.20;3.00;;;15.00;66.10;;;;;;5016568;28;20455;-73
2022/04/25 00:02:53;;;;;;;4.43;2.60;;;15.00;66.80;;;;;;5016280;28;20471;-73
2022/04/25 00:05:20;;;;;;;3.17;2.97;;;14.90;66.70;;;;;;5016144;28;20447;-73
2022/04/25 00:07:47;;;;;;;2.63;2.43;;;15.00;66.70;;;;;;5015631;28;20466;-73
2022/04/25 00:10:14;;;;;;;2.10;2.00;;;14.90;66.60;;;;;;5016212;28;20459;-73
2022/04/25 00:12:40;;;;;;;2.67;2.37;;;14.90;67.00;;;;;;5016027;28;20902;-73
2022/04/25 00:15:09;;;;;;;2.33;2.10;;;14.80;66.70;;;;;;5016251;28;20490;-73
2022/04/25 00:17:36;;;;;;;2.60;2.40;;;14.80;66.70;;;;;;5015719;28;20451;-73
2022/04/25 00:20:03;;;;;;;2.40;2.20;;;14.80;67.00;;;;;;5016270;28;20454;-73
2022/04/25 00:22:30;;;;;;;2.20;2.10;;;14.70;66.80;;;;;;5016172;28;20843;-73
2022/04/25 00:24:57;;;;;;;1.93;1.67;;;14.60;68.40;;;;;;5016212;28;20448;-73
2022/04/25 00:27:25;;;;;;;2.40;1.60;;;14.60;69.30;;;;;;5016168;28;20459;-73
2022/04/25 00:29:52;;;;;;;2.00;1.90;;;14.60;69.80;;;;;;5016212;28;20459;-73
2022/04/25 00:32:20;;;;;;;2.77;2.50;;;14.60;69.50;;;;;;5016149;28;20467;-73
2022/04/25 00:34:47;;;;;;;1.83;1.73;;;14.60;69.70;;;;;;5016151;28;20505;-73
2022/04/25 00:37:14;;;;;;;2.07;1.97;;;14.70;71.10;;;;;;5015900;28;20458;-73
2022/04/25 00:39:41;;;;;;;2.30;2.00;;;14.70;69.80;;;;;;5015713;28;20456;-73
2022/04/25 00:42:08;;;;;;;3.60;2.50;;;14.70;70.00;;;;;;5015964;28;20478;-73
2022/04/25 00:44:35;;;;;;;2.70;2.50;;;14.80;70.20;;;;;;5015758;28;20452;-73
2022/04/25 00:47:03;;;;;;;2.63;2.43;;;14.80;70.60;;;;;;5015899;28;20526;-73
2022/04/25 00:49:31;;;;;;;2.97;2.77;;;14.80;70.90;;;;;;5015257;28;20509;-73
2022/04/25 00:51:59;;;;;;;2.80;2.60;;;14.80;70.80;;;;;;5013915;28;20503;-73
2022/04/25 00:54:26;;;;;;;2.70;2.50;;;14.80;70.80;;;;;;5015664;28;20487;-73
2022/04/25 00:56:53;;;;;;;3.23;2.93;;;14.70;70.60;;;;;;5015126;28;20454;-73
2022/04/25 00:59:21;;;;;;;2.53;2.33;;;14.70;70.80;;;;;;5015628;28;20455;-73
2022/04/25 01:01:51;;;;;;;2.67;2.47;;;14.70;70.80;;;;;;5015554;28;20507;-73
2022/04/25 01:04:18;;;;;;;3.40;3.10;;;14.60;70.60;;;;;;5015711;28;20451;-73
2022/04/25 01:06:46;;;;;;;3.70;3.37;;;14.50;70.70;;;;;;5015812;28;20458;-73
2022/04/25 01:09:12;;;;;;;2.97;2.77;;;14.50;71.10;;;;;;5015464;28;20454;-73
2022/04/25 01:11:39;;;;;;;3.03;2.83;;;14.50;71.30;;;;;;5015282;28;20468;-73
2022/04/25 01:14:14;;;;;;;3.50;3.20;;;14.50;71.50;;;;;;5015504;28;20494;-73
2022/04/25 01:16:41;;;;;;;5.50;3.50;;;14.50;71.90;;;;;;5015124;28;20474;-73
2022/04/25 01:19:08;;;;;;;3.83;3.30;;;14.50;72.80;;;;;;5014304;28;20463;-73
2022/04/25 01:21:39;;;;;;;3.27;2.97;;;14.50;73.80;;;;;;5015057;28;20501;-73
2022/04/25 01:29:39;;;;;;;6.90;5.93;;;14.50;75.00;;;;;;5015652;28;20404;-73
2022/04/25 01:32:07;;;;;;;4.60;4.20;;;14.50;75.30;;;;;;5014999;28;20471;-73
2022/04/25 01:34:36;;;;;;;4.00;3.60;;;14.50;74.00;;;;;;5015190;28;20858;-73
2022/04/25 01:37:06;;;;;;;4.00;3.70;;;14.50;73.30;;;;;;5014608;28;20451;-73
2022/04/25 01:39:35;;;;;;;4.10;3.70;;;14.50;73.80;;;;;;5014858;28;20509;-73
2022/04/25 01:42:02;;;;;;;4.40;4.00;;;14.50;74.50;;;;;;5014849;28;20482;-73
2022/04/25 01:44:29;;;;;;;4.40;3.80;;;14.50;75.20;;;;;;5014655;28;20451;-73
2022/04/25 01:46:56;;;;;;;4.07;3.77;;;14.50;75.40;;;;;;5014605;28;20455;-73
2022/04/25 01:49:23;;;;;;;4.27;3.87;;;14.50;75.40;;;;;;5014352;28;20454;-73
2022/04/25 01:51:50;;;;;;;4.27;3.97;;;14.40;75.50;;;;;;5014165;28;20994;-73
2022/04/25 01:54:22;;;;;;;5.67;3.70;;;14.40;75.90;;;;;;5014654;28;20478;-73
2022/04/25 01:56:50;;;;;;;5.20;4.80;;;14.40;76.00;;;;;;5014717;28;20444;-73
2022/04/25 01:59:17;;;;;;;4.50;4.10;;;14.40;76.10;;;;;;5014544;28;20896;-73
2022/04/25 02:01:44;;;;;;;5.83;4.47;;;14.40;76.30;;;;;;5014347;28;20475;-73
2022/04/25 02:04:11;;;;;;;4.57;4.17;;;14.40;75.60;;;;;;5014281;28;20459;-72
2022/04/25 02:06:38;;;;;;;9.77;4.37;;;14.40;74.50;;;;;;5014253;28;20448;-73
2022/04/25 02:09:04;;;;;;;4.70;4.30;;;14.40;74.40;;;;;;5014211;28;20455;-73
2022/04/25 02:11:31;;;;;;;4.97;4.60;;;14.30;74.20;;;;;;5014534;28;20554;-73
2022/04/25 02:14:00;;;;;;;5.53;5.03;;;14.30;74.50;;;;;;5014654;28;20487;-73
2022/04/25 02:16:27;;;;;;;5.50;5.10;;;14.30;74.90;;;;;;5014194;28;20435;-73
2022/04/25 02:18:54;;;;;;;6.00;5.50;;;14.30;75.30;;;;;;5013798;28;20834;-73
2022/04/25 02:21:22;;;;;;;5.00;4.60;;;14.20;74.70;;;;;;5014582;28;20463;-73
2022/04/25 02:23:49;;;;;;;6.20;4.50;;;14.20;74.30;;;;;;5014075;28;20478;-73
2022/04/25 02:26:15;;;;;;;5.57;5.07;;;14.20;74.30;;;;;;5013949;28;20467;-73
2022/04/25 02:28:43;;;;;;;5.23;4.80;;;14.10;74.00;;;;;;5014330;28;20451;-73
2022/04/25 02:31:11;;;;;;;4.37;4.00;;;14.00;73.80;;;;;;5014086;28;20570;-73
2022/04/25 02:33:38;;;;;;;4.77;4.37;;;13.90;73.50;;;;;;5014035;28;20466;-73
2022/04/25 02:36:05;;;;;;;4.87;4.47;;;13.80;73.60;;;;;;5014149;28;20451;-73
2022/04/25 02:38:34;;;;;;;4.57;4.13;;;13.80;74.00;;;;;;5013940;28;20451;-73
2022/04/25 02:41:06;;;;;;;4.77;4.37;;;13.80;74.10;;;;;;5013900;28;20471;-73
2022/04/25 02:43:34;;;;;;;4.47;4.17;;;13.80;73.70;;;;;;5014029;28;20446;-73
2022/04/25 02:46:02;;;;;;;4.40;4.00;;;13.70;73.30;;;;;;5013742;28;20439;-73
2022/04/25 02:48:31;;;;;;;4.37;4.07;;;13.60;72.70;;;;;;5013304;28;20981;-73
2022/04/25 02:50:58;;;;;;;5.40;4.67;;;13.50;72.70;;;;;;5013951;28;20463;-73
2022/04/25 02:53:25;;;;;;;5.47;4.97;;;13.40;73.90;;;;;;5014028;28;20443;-73
2022/04/25 02:55:52;;;;;;;4.67;4.27;;;13.30;74.50;;;;;;5013684;28;20527;-73
2022/04/25 02:58:20;;;;;;;7.93;4.30;;;13.30;74.20;;;;;;5014065;28;20455;-73
2022/04/25 03:00:47;;;;;;;6.07;5.57;;;13.20;74.40;;;;;;5014245;28;20452;-73
2022/04/25 03:03:14;;;;;;;5.40;4.90;;;13.00;75.70;;;;;;5013895;28;20448;-73
2022/04/25 03:05:44;;;;;;;6.03;5.50;;;12.90;77.50;;;;;;5013943;28;20448;-73
2022/04/25 03:08:12;;;;;;;5.47;5.00;;;12.90;78.00;;;;;;5014258;28;20436;-73
2022/04/25 03:10:39;;;;;;;5.50;5.10;;;12.70;78.50;;;;;;5013796;28;20455;-73
2022/04/25 03:13:07;;;;;;;7.00;6.40;;;12.70;79.30;;;;;;5014054;28;20452;-73
2022/04/25 03:15:34;;;;;;;5.53;5.13;;;12.70;80.30;;;;;;5013714;28;20490;-73
2022/04/25 03:18:02;;;;;;;6.93;6.20;;;12.70;81.00;;;;;;5013646;28;20463;-73
2022/04/25 03:20:29;;;;;;;6.80;6.20;;;12.70;81.50;;;;;;5013640;28;20455;-73
2022/04/25 03:22:57;;;;;;;10.20;5.63;;;12.70;81.30;;;;;;5014026;28;20451;-73
2022/04/25 03:25:24;;;;;;;6.13;5.63;;;12.70;81.50;;;;;;5013980;28;20454;-73
2022/04/25 03:27:51;;;;;;;6.30;5.70;;;12.80;81.50;;;;;;5013442;28;20942;-73
2022/04/25 03:30:19;;;;;;;6.40;5.80;;;12.80;80.80;;;;;;5013865;28;20458;-73
2022/04/25 03:32:46;;;;;;;6.23;5.73;;;12.80;80.90;;;;;;5013833;28;20475;-73
2022/04/25 03:35:13;;;;;;;6.20;5.67;;;12.90;80.90;;;;;;5013581;28;20490;-73
2022/04/25 03:37:40;;;;;;;6.43;5.90;;;12.90;80.40;;;;;;5013638;28;20456;-73
2022/04/25 03:40:10;;;;;;;10.60;6.10;;;12.90;80.50;;;;;;5013513;28;20454;-73
2022/04/25 03:42:37;;;;;;;7.87;5.83;;;12.90;80.20;;;;;;5014199;28;20883;-73
2022/04/25 03:45:05;;;;;;;8.17;5.70;;;12.90;80.30;;;;;;5016960;28;20478;-73
2022/04/25 03:47:33;;;;;;;5.93;5.33;;;12.90;79.70;;;;;;5016465;28;21026;-73
2022/04/25 03:50:00;;;;;;;12.27;6.30;;;12.90;79.10;;;;;;5016950;28;20474;-73
2022/04/25 03:52:27;;;;;;;11.57;6.37;;;12.90;79.10;;;;;;5016571;28;20494;-73
2022/04/25 03:57:39;;;;;;;8.80;6.07;;;12.90;78.60;;;;;;5017055;28;20411;-73
2022/04/25 04:00:09;;;;;;;7.70;6.20;;;12.80;78.30;;;;;;5016492;28;20883;-73
2022/04/25 04:02:38;;;;;;;7.30;6.00;;;12.80;78.30;;;;;;5016557;28;20511;-73
2022/04/25 04:05:05;;;;;;;7.13;6.07;;;12.70;78.10;;;;;;5016070;28;20830;-73
2022/04/25 04:07:33;;;;;;;8.80;6.17;;;12.70;78.20;;;;;;5016372;28;20443;-73
2022/04/25 04:10:00;;;;;;;12.63;5.83;;;12.60;78.30;;;;;;5016473;28;20451;-73
2022/04/25 04:12:32;;;;;;;6.57;5.97;;;12.60;78.40;;;;;;5016305;28;20486;-73
2022/04/25 04:15:02;;;;;;;7.30;6.57;;;12.60;78.60;;;;;;5016268;28;20555;-73
2022/04/25 04:17:29;;;;;;;6.27;5.13;;;12.60;78.90;;;;;;5016059;28;20454;-73
2022/04/25 04:19:56;;;;;;;9.20;5.90;;;12.50;78.90;;;;;;5016290;28;20451;-73
2022/04/25 04:22:25;;;;;;;6.57;5.80;;;12.50;79.00;;;;;;5016640;28;20488;-72
2022/04/25 04:24:52;;;;;;;7.23;6.50;;;12.40;79.10;;;;;;5016725;28;20460;-72
2022/04/25 04:27:19;;;;;;;8.40;6.90;;;12.40;79.30;;;;;;5016706;28;20456;-73
2022/04/25 04:29:46;;;;;;;9.10;5.70;;;12.40;79.50;;;;;;5016130;28;20466;-72
2022/04/25 04:32:15;;;;;;;6.60;5.70;;;12.40;79.50;;;;;;5015816;28;20849;-72
2022/04/25 04:34:42;;;;;;;11.00;6.90;;;12.40;79.70;;;;;;5015891;28;20498;-71
2022/04/25 04:37:08;;;;;;;8.63;6.50;;;12.40;80.10;;;;;;5015607;28;20463;-71
2022/04/25 04:39:35;;;;;;;7.97;6.70;;;12.40;80.00;;;;;;5015857;28;20438;-71
2022/04/25 04:42:02;;;;;;;6.93;6.20;;;12.40;80.00;;;;;;5015229;28;20474;-72
2022/04/25 04:44:29;;;;;;;7.13;6.53;;;12.40;79.90;;;;;;5015770;28;20451;-71
2022/04/25 04:46:56;;;;;;;8.17;6.40;;;12.40;80.20;;;;;;5015373;28;20795;-71
2022/04/25 04:49:24;;;;;;;8.93;6.83;;;12.30;80.60;;;;;;5015295;28;20552;-71
2022/04/25 04:51:51;;;;;;;7.50;6.80;;;12.30;80.90;;;;;;5015113;28;20534;-72
2022/04/25 04:54:18;;;;;;;7.60;6.80;;;12.40;81.20;;;;;;5015107;28;20458;-72
2022/04/25 04:56:46;;;;;;;7.70;6.90;;;12.40;81.50;;;;;;5015265;28;20475;-72
2022/04/25 04:59:13;;;;;;;8.37;7.67;;;12.40;81.70;;;;;;5015237;28;20460;-72
2022/04/25 05:01:40;;;;;;;10.30;9.17;;;12.50;82.10;;;;;;5014967;28;20479;-72
2022/04/25 05:04:06;;;;;;;9.70;8.80;;;12.50;82.50;;;;;;5015092;28;20942;-72
2022/04/25 05:06:34;;;;;;;9.53;7.53;;;12.50;82.40;;;;;;5014978;28;20447;-72
2022/04/25 05:09:01;;;;;;;10.43;9.03;;;12.60;82.80;;;;;;5015202;28;20451;-72
2022/04/25 05:11:30;;;;;;;8.00;6.93;;;12.60;83.00;;;;;;5014359;28;21016;-72
2022/04/25 05:13:58;;;;;;;15.20;9.33;;;12.60;83.30;;;;;;5015088;28;20482;-72
2022/04/25 05:16:25;;;;;;;7.43;6.73;;;12.60;83.30;;;;;;5014715;28;20533;-72
2022/04/25 05:18:52;;;;;;;8.10;7.20;;;12.60;83.30;;;;;;5015558;28;20535;-72
2022/04/25 05:21:18;;;;;;;9.90;8.27;;;12.60;83.40;;;;;;5014710;28;20483;-72
2022/04/25 05:23:46;;;;;;;10.70;9.70;;;12.60;83.90;;;;;;5014594;28;20447;-73
2022/04/25 05:26:13;;;;;;;9.83;8.67;;;12.60;84.10;;;;;;5014721;28;20459;-72
2022/04/25 05:28:40;;;;;;;11.97;10.30;;;12.70;84.10;;;;;;5014813;28;20452;-72
2022/04/25 05:31:07;;;;;;;8.90;8.00;;;12.70;83.90;;;;;;5014554;28;20467;-72
2022/04/25 05:33:34;;;;;;;11.83;10.50;;;12.70;84.00;;;;;;5015447;28;20452;-72
2022/04/25 05:36:00;;;;;;;11.30;9.50;;;12.70;84.00;;;;;;5014563;28;20483;-72
2022/04/25 05:38:27;;;;;;;9.83;8.83;;;12.70;84.20;;;;;;5014411;28;20486;-72
2022/04/25 05:40:56;;;;;;;10.97;9.87;;;12.70;84.30;;;;;;5014128;28;20839;-72
2022/04/25 05:43:24;;;;;;;9.83;8.87;;;12.70;84.10;;;;;;5014456;28;20447;-72
2022/04/25 05:45:51;;;;;;;11.77;9.60;;;12.70;84.30;;;;;;5014114;28;20443;-71
2022/04/25 05:53:47;;;;;;;12.43;9.70;;;12.70;85.50;;;;;;5014234;28;20407;-72
2022/04/25 05:56:15;;;;;;;10.53;9.43;;;12.70;85.00;;;;;;5014271;28;20471;-72
2022/04/25 05:58:42;;;;;;;14.67;9.97;;;12.70;85.30;;;;;;5014073;28;20451;-72
2022/04/25 06:01:09;;;;;;;9.83;8.50;;;12.70;84.80;;;;;;5013642;28;20480;-72
2022/04/25 06:03:36;;;;;;;10.33;9.37;;;12.80;84.70;;;;;;5014215;28;20443;-72
2022/04/25 06:06:03;;;;;;;10.37;9.37;;;12.80;84.90;;;;;;5013476;28;20523;-72
2022/04/25 06:08:29;;;;;;;9.10;8.30;;;12.90;85.20;;;;;;5013978;28;20462;-72
2022/04/25 06:10:56;;;;;;;11.80;10.63;;;13.00;85.80;;;;;;5014033;28;20532;-72
2022/04/25 06:13:25;;;;;;;10.83;9.83;;;13.20;86.80;;;;;;5013903;28;20833;-72
2022/04/25 06:15:52;;;;;;;12.70;11.50;;;13.30;87.20;;;;;;5013694;28;20582;-72
2022/04/25 06:18:19;;;;;;;11.27;10.20;;;13.30;86.80;;;;;;5014018;28;20455;-72
2022/04/25 06:20:46;;;;;;;8.90;8.10;;;13.50;86.40;;;;;;5013867;28;20436;-72
2022/04/25 06:23:13;;;;;;;10.97;10.07;;;13.60;86.60;;;;;;5014017;28;20456;-72
2022/04/25 06:25:39;;;;;;;10.63;9.03;;;13.70;86.40;;;;;;5013901;28;20447;-72
2022/04/25 06:28:07;;;;;;;11.37;10.30;;;13.80;86.40;;;;;;5013861;28;20459;-71
2022/04/25 06:30:36;;;;;;;9.37;8.47;;;13.80;85.70;;;;;;5014013;28;20451;-71
2022/04/25 06:33:03;;;;;;;9.50;8.50;;;13.90;85.60;;;;;;5013839;28;20853;-72
2022/04/25 06:35:30;;;;;;;11.73;9.30;;;14.00;84.90;;;;;;5013949;28;20483;-72
2022/04/25 06:37:57;;;;;;;12.80;10.77;;;14.10;85.00;;;;;;5013981;28;20462;-71
2022/04/25 06:40:24;;;;;;;10.70;9.60;;;14.10;85.00;;;;;;5013267;28;20448;-72
2022/04/25 06:42:53;;;;;;;9.17;8.30;;;14.20;84.60;;;;;;5013886;28;20475;-72
2022/04/25 06:45:20;;;;;;;10.73;9.73;;;14.20;84.10;;;;;;5014046;28;20528;-71
2022/04/25 06:47:49;;;;;;;11.63;10.37;;;14.30;83.30;;;;;;5014226;28;20818;-72
2022/04/25 06:50:15;;;;;;;11.40;10.30;;;14.40;83.60;;;;;;5013480;28;20462;-72
2022/04/25 06:52:43;;;;;;;11.63;10.63;;;14.50;83.80;;;;;;5013105;28;21128;-72
2022/04/25 06:55:10;;;;;;;8.83;8.13;;;14.50;83.70;;;;;;5013261;28;20458;-72
2022/04/25 06:57:37;;;;;;;9.73;8.20;;;14.70;83.70;;;;;;5013642;28;20820;-71
2022/04/25 07:00:08;;;;;;;11.60;10.50;;;14.70;83.00;;;;;;5013481;28;20455;-72
2022/04/25 07:02:35;;;;;;;11.47;10.47;;;14.90;83.20;;;;;;5013537;28;20483;-72
2022/04/25 07:05:06;;;;;;;10.30;9.40;;;14.90;83.20;;;;;;5013422;28;20443;-72
2022/04/25 07:07:32;;;;;;;8.30;7.53;;;15.00;82.70;;;;;;5013425;28;20478;-72
2022/04/25 07:09:59;;;;;;;9.97;9.10;;;15.10;81.60;;;;;;5013135;28;20993;-71
2022/04/25 07:12:27;;;;;;;11.17;10.03;;;15.10;80.90;;;;;;5013502;28;20467;-71
2022/04/25 07:14:54;;;;;;;11.97;10.87;;;15.20;80.90;;;;;;5013556;28;20491;-71
2022/04/25 07:17:21;;;;;;;10.80;9.70;;;15.20;80.60;;;;;;5014953;28;20487;-71
2022/04/25 07:19:48;;;;;;;9.67;8.77;;;15.30;80.70;;;;;;5017370;28;20498;-71
2022/04/25 07:30:30;;;;;;;8.93;8.23;;;15.80;79.90;;;;;;5016527;28;20415;-72
2022/04/25 07:32:57;;;;;;;8.10;7.30;;;16.00;79.00;;;;;;5016795;28;20465;-72
2022/04/25 07:35:24;;;;;;;9.60;8.67;;;16.30;78.20;;;;;;5016395;28;20455;-72
2022/04/25 07:37:52;;;;;;;8.10;7.40;;;16.50;76.90;;;;;;5016720;28;20459;-72
2022/04/25 07:40:19;;;;;;;10.00;9.00;;;16.80;75.00;;;;;;5016446;28;20458;-72
2022/04/25 07:42:46;;;;;;;9.00;8.10;;;16.90;74.00;;;;;;5016371;28;20989;-72
2022/04/25 07:45:12;;;;;;;9.57;8.73;;;17.10;73.20;;;;;;5016342;28;20545;-72
2022/04/25 07:47:43;;;;;;;9.20;8.37;;;17.20;71.60;;;;;;5016456;28;20463;-73
2022/04/25 07:50:10;;;;;;;7.87;7.37;;;17.30;69.40;;;;;;5016371;28;20467;-71
2022/04/25 07:52:37;;;;;;;8.90;8.07;;;17.40;68.70;;;;;;5015719;28;21020;-72
2022/04/25 07:55:07;;;;;;;10.13;9.20;;;17.60;69.30;;;;;;5016357;28;20478;-72
2022/04/25 07:57:34;;;;;;;9.90;8.87;;;17.70;69.20;;;;;;5016194;28;20549;-72
2022/04/25 08:00:00;;;;;;;10.00;9.20;;;17.80;68.70;;;;;;5015683;28;20451;-72
2022/04/25 08:02:28;;;;;;;10.70;9.67;;;17.90;66.70;;;;;;5016109;28;20870;-72
2022/04/25 08:04:55;;;;;;;10.70;9.90;;;17.90;64.80;;;;;;5016225;28;20459;-72
2022/04/25 08:07:23;;;;;;;10.93;9.93;;;17.90;64.20;;;;;;5016533;28;20447;-72
2022/04/25 08:09:51;;;;;;;10.90;10.10;;;18.00;65.30;;;;;;5015679;28;20494;-72
2022/04/25 08:18:04;;;;;;;9.90;9.07;;;18.20;64.60;;;;;;5015919;28;20503;-72
2022/04/25 08:20:34;;;;;;;11.03;10.13;;;18.30;64.80;;;;;;5015575;28;20435;-72
2022/04/25 08:23:01;;;;;;;12.20;11.20;;;18.40;65.10;;;;;;5015658;28;20847;-72
2022/04/25 08:25:30;;;;;;;10.03;9.23;;;18.50;65.30;;;;;;5015503;28;20447;-72
2022/04/25 08:27:58;;;;;;;9.70;8.70;;;18.60;64.30;;;;;;5015320;28;20455;-72
2022/04/25 08:30:25;;;;;;;11.17;10.13;;;18.60;63.20;;;;;;5014907;28;20451;-72
2022/04/25 08:32:54;;;;;;;10.43;9.03;;;18.70;63.40;;;;;;5016223;28;20522;-72
2022/04/25 08:35:22;;;;;;;8.70;8.10;;;18.80;61.50;;;;;;5015165;28;20451;-72
2022/04/25 08:37:49;;;;;;;9.80;8.90;;;18.90;61.60;;;;;;5014991;28;20545;-72
2022/04/25 08:40:16;;;;;;;10.63;9.60;;;19.00;59.90;;;;;;5015114;28;20547;-72
2022/04/25 08:42:44;;;;;;;10.13;9.23;;;19.10;59.50;;;;;;5014929;28;20826;-72
2022/04/25 08:45:14;;;;;;;9.63;8.83;;;19.10;59.10;;;;;;5015387;28;20538;-72
2022/04/25 08:47:46;;;;;;;10.47;9.57;;;19.10;58.60;;;;;;5015261;28;20447;-72
2022/04/25 08:50:13;;;;;;;9.83;8.93;;;19.10;58.20;;;;;;5015620;28;20454;-72
2022/04/25 08:52:41;;;;;;;9.20;8.50;;;19.00;58.30;;;;;;5014863;28;20479;-72
2022/04/25 08:55:08;;;;;;;10.10;9.30;;;18.90;58.60;;;;;;5014966;28;20566;-72
2022/04/25 08:57:36;;;;;;;13.13;11.83;;;18.90;58.60;;;;;;5015356;28;20491;-72
2022/04/25 09:00:05;;;;;;;12.67;11.57;;;18.80;58.50;;;;;;5015146;28;20455;-72
2022/04/25 09:02:34;;;;;;;13.20;12.07;;;18.80;59.00;;;;;;5014771;28;20507;-72
2022/04/25 09:05:01;;;;;;;14.13;12.83;;;18.70;59.30;;;;;;5014385;28;20953;-72
2022/04/25 09:07:28;;;;;;;13.90;11.10;;;18.70;59.10;;;;;;5014925;28;20455;-72
2022/04/25 09:09:55;;;;;;;13.07;11.97;;;18.70;59.50;;;;;;5014880;28;20447;-72
2022/04/25 09:12:22;;;;;;;13.13;12.00;;;18.70;59.00;;;;;;5014936;28;20511;-72
2022/04/25 09:14:49;;;;;;;14.47;13.20;;;18.80;59.20;;;;;;5014799;28;20448;-72
2022/04/25 09:17:16;;;;;;;17.40;15.83;;;18.80;59.30;;;;;;5014837;28;20494;-72
2022/04/25 09:19:46;;;;;;;15.73;14.40;;;18.80;59.50;;;;;;5014664;28;20456;-72
2022/04/25 09:22:28;;;;;;;14.77;13.47;;;18.70;59.20;;;;;;5014381;28;20986;-72
2022/04/25 09:24:55;;;;;;;19.60;17.60;;;18.70;59.10;;;;;;5014917;28;20448;-72
2022/04/25 09:27:23;;;;;;;20.23;18.50;;;18.60;58.80;;;;;;5014330;28;20455;-72
2022/04/25 09:29:50;;;;;;;20.10;18.23;;;18.60;59.10;;;;;;5014454;28;20891;-72
2022/04/25 09:32:19;;;;;;;17.43;15.93;;;18.50;59.50;;;;;;5014262;28;20572;-72
2022/04/25 09:35:04;;;;;;;18.33;16.53;;;18.50;60.20;;;;;;5014567;28;20506;-72
2022/04/25 09:37:43;;;;;;;21.13;19.23;;;18.40;60.10;;;;;;5014627;28;20558;-72
2022/04/25 09:40:11;;;;;;;21.07;18.93;;;18.40;59.80;;;;;;5013785;28;20455;-73
2022/04/25 09:42:37;;;;;;;23.80;21.50;;;18.40;60.10;;;;;;5014439;28;20459;-72
2022/04/25 09:45:05;;;;;;;21.70;19.60;;;18.50;60.50;;;;;;5013947;28;20973;-72
2022/04/25 09:47:34;;;;;;;20.03;18.07;;;18.40;60.00;;;;;;5014270;28;20570;-73
2022/04/25 09:50:05;;;;;;;23.50;21.37;;;18.40;60.50;;;;;;5014005;28;20455;-72
2022/04/25 09:52:33;;;;;;;19.37;17.60;;;18.40;60.90;;;;;;5014234;28;20521;-72
2022/04/25 09:55:14;;;;;;;25.17;22.63;;;18.40;61.10;;;;;;5014069;28;20451;-72
2022/04/25 09:57:42;;;;;;;23.80;21.60;;;18.50;61.20;;;;;;5014167;28;20532;-72
2022/04/25 10:00:10;;;;;;;23.10;20.90;;;18.50;60.30;;;;;;5014137;28;20458;-73
2022/04/25 10:02:39;;;;;;;20.67;18.93;;;18.60;60.80;;;;;;5014273;28;20555;-72
2022/04/25 10:05:37;;;;;;;25.03;22.57;;;18.70;60.20;;;;;;5013735;28;20939;-72
2022/04/25 10:08:05;;;;;;;21.97;19.90;;;18.80;59.20;;;;;;5014053;28;20451;-72
2022/04/25 10:10:33;;;;;;;25.97;23.57;;;18.80;59.10;;;;;;5013779;28;20454;-73
2022/04/25 10:13:01;;;;;;;24.87;22.50;;;18.80;59.00;;;;;;5013631;28;21021;-73
2022/04/25 10:15:28;;;;;;;25.07;22.57;;;18.90;59.80;;;;;;5013861;28;20458;-73
2022/04/25 10:17:57;;;;;;;25.07;22.80;;;19.00;59.70;;;;;;5013780;28;20502;-73
2022/04/25 10:20:25;;;;;;;26.60;23.80;;;19.10;59.20;;;;;;5013615;28;20863;-73
2022/04/25 10:22:54;;;;;;;26.10;23.53;;;19.10;59.00;;;;;;5013736;28;20478;-73
2022/04/25 10:25:21;;;;;;;20.07;18.17;;;19.20;59.50;;;;;;5013816;28;20463;-73
2022/04/25 10:27:49;;;;;;;23.73;21.33;;;19.30;58.80;;;;;;5013462;28;20950;-73
2022/04/25 10:30:18;;;;;;;20.60;18.83;;;19.40;57.90;;;;;;5013904;28;20538;-73
2022/04/25 10:32:45;;;;;;;19.57;17.90;;;19.40;57.70;;;;;;5013709;28;20846;-73
2022/04/25 10:35:18;;;;;;;23.37;21.37;;;19.50;57.40;;;;;;5014400;28;20529;-73
2022/04/25 10:37:48;;;;;;;22.93;20.87;;;19.50;58.30;;;;;;5013680;28;20471;-73
2022/04/25 10:44:10;;;;;;;22.03;20.23;;;19.50;58.50;;;;;;5014138;28;20447;-73
2022/04/25 10:46:14;;;;;;;20.40;18.80;;;19.50;59.50;;;;;;5013895;28;20941;-73
2022/04/25 10:49:06;;;;;;;20.50;18.70;;;19.50;59.30;;;;;;5014077;28;20447;-73
2022/04/25 10:51:41;;;;;;;17.50;15.90;;;19.60;59.60;;;;;;5014314;28;20472;-73
2022/04/25 10:54:10;;;;;;;21.40;19.57;;;19.70;59.00;;;;;;5017983;28;20458;-73
2022/04/25 10:57:16;;;;;;;17.93;16.40;;;19.80;58.60;;;;;;5017474;28;20973;-73
2022/04/25 10:59:44;;;;;;;19.37;17.67;;;19.90;58.50;;;;;;5017700;28;20455;-72
2022/04/25 11:02:21;;;;;;;18.43;16.93;;;20.10;58.20;;;;;;5017505;28;20471;-71
2022/04/25 11:04:48;;;;;;;18.20;16.73;;;20.40;57.40;;;;;;5017134;28;20535;-73
2022/04/25 11:07:24;;;;;;;16.07;14.83;;;20.60;55.80;;;;;;5017568;28;20451;-72
2022/04/25 11:09:53;;;;;;;18.53;16.97;;;21.00;53.30;;;;;;5017230;28;20439;-73
2022/04/25 11:12:20;;;;;;;19.87;18.27;;;21.30;53.20;;;;;;5017172;28;20501;-73
2022/04/25 11:14:57;;;;;;;18.70;17.10;;;21.70;53.10;;;;;;5017078;28;20459;-73
2022/04/25 11:17:26;;;;;;;14.53;13.43;;;22.10;51.40;;;;;;5017373;28;20479;-74
2022/04/25 11:19:55;;;;;;;16.87;15.37;;;22.90;51.00;;;;;;5017097;28;20431;-74
2022/04/25 11:22:47;;;;;;;14.40;13.30;;;23.80;46.40;;;;;;5017151;28;20471;-74
2022/04/25 11:25:43;;;;;;;15.07;13.97;;;24.00;42.80;;;;;;5017301;28;20435;-74
2022/04/25 11:28:13;;;;;;;14.70;13.30;;;23.70;42.90;;;;;;5017242;28;20459;-74
2022/04/25 11:30:41;;;;;;;15.10;13.90;;;23.40;42.40;;;;;;5017235;28;20438;-74
2022/04/25 11:33:12;;;;;;;14.83;13.63;;;23.00;43.30;;;;;;5016440;28;20861;-74
2022/04/25 11:35:41;;;;;;;13.70;12.70;;;22.70;44.40;;;;;;5016845;28;20444;-74
2022/04/25 11:38:08;;;;;;;13.50;12.50;;;22.70;45.00;;;;;;5016495;28;21029;-74
2022/04/25 11:40:35;;;;;;;13.90;12.90;;;22.90;45.40;;;;;;5017010;28;20451;-74
2022/04/25 11:43:05;;;;;;;12.13;11.30;;;23.20;44.40;;;;;;5016747;28;20447;-73
2022/04/25 11:45:32;;;;;;;12.30;11.40;;;23.40;44.60;;;;;;5018198;28;20447;-73
2022/04/25 11:48:00;;;;;;;12.20;11.30;;;23.50;43.90;;;;;;5016712;28;20477;-73
2022/04/25 11:50:28;;;;;;;12.60;11.50;;;23.50;43.60;;;;;;5016729;28;20455;-73
2022/04/25 11:52:57;;;;;;;12.20;11.20;;;23.50;43.60;;;;;;5016657;28;20471;-73
2022/04/25 11:55:34;;;;;;;12.10;11.20;;;23.30;42.70;;;;;;5016762;28;20530;-74
2022/04/25 11:58:01;;;;;;;11.33;10.53;;;23.00;43.30;;;;;;5016339;28;20482;-73
2022/04/25 12:00:29;;;;;;;11.13;10.13;;;23.00;44.10;;;;;;5016502;28;20515;-73
2022/04/25 12:02:56;;;;;;;11.10;10.30;;;23.00;44.00;;;;;;5015860;28;20432;-73
2022/04/25 12:05:28;;;;;;;11.87;10.90;;;23.00;43.10;;;;;;5016080;28;20822;-73
2022/04/25 12:16:09;;;;;;;10.97;10.10;;;23.10;43.60;;;;;;5016318;28;20407;-73
2022/04/25 12:18:35;;;;;;;11.20;10.40;;;23.30;42.40;;;;;;5016332;28;20501;-73
2022/04/25 12:21:04;;;;;;;11.60;10.70;;;24.10;43.20;;;;;;5015948;28;20471;-73
2022/04/25 12:23:33;;;;;;;10.07;9.37;;;25.50;41.80;;;;;;5016417;28;20447;-73
2022/04/25 12:26:03;;;;;;;9.37;8.77;;;27.20;37.60;;;;;;5015596;28;20436;-73
2022/04/25 12:28:31;;;;;;;9.67;9.03;;;28.80;35.10;;;;;;5015648;28;20505;-73
2022/04/25 12:31:05;;;;;;;10.10;9.33;;;30.20;30.60;;;;;;5015239;28;20471;-74
2022/04/25 12:33:35;;;;;;;9.27;8.57;;;31.30;29.80;;;;;;5015399;28;20435;-74
2022/04/25 12:36:11;;;;;;;10.90;10.20;;;32.40;28.90;;;;;;5015565;28;20482;-74
2022/04/25 12:38:42;;;;;;;10.00;9.30;;;33.10;26.90;;;;;;5015198;28;20474;-74
2022/04/25 12:41:11;;;;;;;10.80;10.00;;;33.60;26.50;;;;;;5015341;28;20470;-74
2022/04/25 12:43:40;;;;;;;10.80;10.10;;;34.40;25.90;;;;;;5015443;28;20451;-74
2022/04/25 12:46:08;;;;;;;10.90;10.10;;;35.20;24.90;;;;;;5015414;28;20451;-74
2022/04/25 12:48:59;;;;;;;9.83;9.23;;;35.90;23.40;;;;;;5015288;28;20450;-74
2022/04/25 12:51:44;;;;;;;8.20;7.70;;;36.60;22.20;;;;;;5014732;28;20495;-75
2022/04/25 12:54:23;;;;;;;8.80;8.30;;;37.20;21.40;;;;;;5015082;28;20199;-74
2022/04/25 12:56:52;;;;;;;7.22;6.80;;;37.90;20.30;;;;;;5015737;28;20207;-74
2022/04/25 12:59:26;;;;;;;8.90;8.23;;;38.50;20.10;;;;;;5015291;28;20192;-74
2022/04/25 13:02:01;;;;;;;9.02;8.43;;;39.10;19.30;;;;;;5015300;28;20227;-75
2022/04/25 13:04:30;;;;;;;8.40;7.90;;;39.60;19.00;;;;;;5015144;28;20207;-75
2022/04/25 13:06:56;;;;;;;8.50;8.00;;;39.50;18.90;;;;;;5015097;28;20229;-75
2022/04/25 13:09:23;;;;;;;8.23;7.72;;;38.60;19.50;;;;;;5014784;28;20235;-75
2022/04/25 13:11:50;;;;;;;9.77;9.00;;;37.50;19.70;;;;;;5015066;28;20251;-75
2022/04/25 13:14:17;;;;;;;9.20;8.70;;;37.00;20.50;;;;;;5014720;28;20203;-75
2022/04/25 13:16:44;;;;;;;11.93;11.13;;;37.00;20.50;;;;;;5014417;28;20208;-75
2022/04/25 13:19:11;;;;;;;10.20;9.60;;;36.70;18.70;;;;;;5014581;28;20223;-75
2022/04/25 13:21:41;;;;;;;9.93;9.23;;;35.70;20.10;;;;;;5014339;28;20547;-74
2022/04/25 13:24:22;;;;;;;11.27;10.57;;;34.60;21.50;;;;;;5139003;27;21133;-74